Time;durP1;ratioP1;P1;durP2;ratioP2;P2;SDS_P1;SDS_P2;PMS_P1;PMS_P2;Temp;Humidity;BMP_temperature;BMP_pressure;BME280_temperature;BME280_humidity;BME280_pressure;Samples;Min_cycle;Max_cycle;Signal;HPM_P1;HPM_P2
2023/06/19 00:02:02;;;;;;;;;5.33;5.33;;;;;22.71;63.48;100693.19;4957801;28;45428;-74
2023/06/19 00:04:28;;;;;;;;;5.67;5.33;;;;;22.70;63.37;100687.94;4957887;28;45493;-75
2023/06/19 00:06:54;;;;;;;;;8.67;5.67;;;;;22.72;63.63;100692.25;4960160;28;45358;-74
2023/06/19 00:09:20;;;;;;;;;7.00;7.00;;;;;22.73;63.36;100691.31;4960083;28;45498;-75
2023/06/19 00:11:46;;;;;;;;;8.00;5.33;;;;;22.46;63.20;100645.47;4951537;28;45558;-75
2023/06/19 00:14:11;;;;;;;;;6.33;5.33;;;;;22.63;63.43;100676.69;4936320;28;45491;-73
2023/06/19 00:16:37;;;;;;;;;5.33;4.33;;;;;22.63;63.59;100679.34;4968425;28;45809;-73
2023/06/19 00:19:05;;;;;;;;;7.00;6.00;;;;;22.70;63.78;100695.94;4951405;28;46017;-74
2023/06/19 00:21:34;;;;;;;;;6.00;6.00;;;;;22.64;63.26;100691.78;4955561;28;45558;-73
2023/06/19 00:24:03;;;;;;;;;5.00;5.00;;;;;22.63;63.51;100693.56;4954443;28;45324;-75
2023/06/19 00:26:29;;;;;;;;;10.00;6.33;;;;;22.55;63.72;100689.56;4956013;28;45519;-74
2023/06/19 00:28:54;;;;;;;;;8.00;8.00;;;;;22.49;63.86;100701.38;4956282;28;47414;-73
2023/06/19 00:31:20;;;;;;;;;6.67;5.00;;;;;22.31;64.50;100710.28;4960166;28;45426;-74
2023/06/19 00:33:51;;;;;;;;;6.33;6.33;;;;;22.16;64.73;100703.81;4960285;28;45759;-73
2023/06/19 00:36:21;;;;;;;;;6.33;6.33;;;;;22.06;64.65;100689.19;4956371;28;45601;-74
2023/06/19 00:38:48;;;;;;;;;7.00;4.67;;;;;22.32;64.48;100738.69;4941782;28;45769;-75
2023/06/19 00:41:18;;;;;;;;;7.33;6.00;;;;;22.34;64.58;100739.47;4935464;28;45423;-73
2023/06/19 00:43:44;;;;;;;;;5.33;5.33;;;;;22.18;64.42;100715.28;4935917;28;45630;-74
2023/06/19 00:46:11;;;;;;;;;10.67;7.33;;;;;22.34;64.08;100745.66;4935681;28;45526;-72
2023/06/19 00:48:37;;;;;;;;;9.33;7.00;;;;;22.29;64.38;100746.84;4935862;28;45703;-74
2023/06/19 00:51:10;;;;;;;;;8.67;7.33;;;;;22.25;64.66;100745.22;4935765;28;45756;-73
2023/06/19 00:53:38;;;;;;;;;9.33;6.33;;;;;22.26;64.66;100747.84;4938448;28;45461;-74
2023/06/19 00:56:05;;;;;;;;;7.67;7.33;;;;;22.22;64.75;100751.56;4940584;28;45393;-74
2023/06/19 00:58:32;;;;;;;;;10.67;8.67;;;;;22.01;64.75;100724.91;4938171;28;47821;-75
2023/06/19 01:00:58;;;;;;;;;7.67;7.00;;;;;22.14;64.54;100741.25;4938608;28;45418;-74
2023/06/19 01:03:26;;;;;;;;;7.00;6.33;;;;;22.12;64.58;100727.09;4934294;28;45514;-74
2023/06/19 01:05:54;;;;;;;;;6.33;4.33;;;;;22.28;64.44;100759.31;4946505;28;45491;-73
2023/06/19 01:08:44;;;;;;;;;9.33;6.33;;;;;22.31;64.32;100760.97;4952514;28;47661;-73
2023/06/19 01:11:14;;;;;;;;;7.00;7.00;;;;;22.32;64.42;100768.88;4953263;28;45479;-73
2023/06/19 01:13:43;;;;;;;;;9.33;8.67;;;;;22.35;64.44;100754.53;4960001;28;46317;-73
2023/06/19 01:16:11;;;;;;;;;8.33;8.00;;;;;22.27;64.43;100746.88;4935998;28;45427;-74
2023/06/19 01:18:37;;;;;;;;;9.67;8.33;;;;;22.23;64.48;100747.97;4935586;28;45546;-73
2023/06/19 01:21:13;;;;;;;;;7.33;7.33;;;;;22.32;64.32;100762.69;4945065;28;45409;-74
2023/06/19 01:23:40;;;;;;;;;13.00;9.33;;;;;22.30;64.44;100770.75;4954291;28;45439;-75
2023/06/19 01:26:07;;;;;;;;;7.00;7.00;;;;;22.15;64.33;100745.63;4941138;28;45629;-74
2023/06/19 01:28:37;;;;;;;;;9.67;8.33;;;;;22.18;64.39;100749.94;4935963;28;45376;-75
2023/06/19 01:31:43;;;;;;;;;8.33;7.33;;;;;22.27;64.46;100759.38;4936994;28;45451;-74
2023/06/19 01:34:12;;;;;;;;;7.00;7.00;;;;;22.25;64.31;100754.09;4956272;28;45415;-74
2023/06/19 01:36:38;;;;;;;;;6.67;6.00;;;;;22.31;64.51;100766.31;4958782;28;45459;-73
2023/06/19 01:39:05;;;;;;;;;8.33;8.33;;;;;22.29;64.51;100758.38;4953794;28;45448;-75
2023/06/19 01:41:36;;;;;;;;;8.00;8.00;;;;;22.21;64.65;100760.53;4954158;28;45598;-74
2023/06/19 01:44:05;;;;;;;;;7.00;7.00;;;;;21.97;64.90;100746.47;4954474;28;45423;-75
2023/06/19 01:46:31;;;;;;;;;10.67;10.67;;;;;21.54;65.50;100714.56;4954981;28;45593;-75
2023/06/19 01:48:57;;;;;;;;;12.33;11.67;;;;;21.77;66.16;100782.88;4958267;28;46289;-74
2023/06/19 01:51:23;;;;;;;;;12.33;9.67;;;;;21.67;66.63;100780.69;4957683;28;45435;-74
2023/06/19 01:53:48;;;;;;;;;10.00;8.67;;;;;21.58;66.63;100780.16;4954835;28;45346;-74
2023/06/19 01:56:14;;;;;;;;;12.33;12.33;;;;;21.31;66.72;100744.00;4954962;28;45427;-74
2023/06/19 01:58:39;;;;;;;;;14.00;12.00;;;;;21.15;67.06;100736.66;4953820;28;46155;-74
2023/06/19 02:01:05;;;;;;;;;15.00;15.00;;;;;21.44;66.96;100784.34;4954067;28;45359;-74
2023/06/19 02:03:34;;;;;;;;;13.67;13.33;;;;;21.17;67.03;100736.59;4953713;28;45413;-75
2023/06/19 02:06:00;;;;;;;;;10.67;10.67;;;;;21.26;66.67;100735.31;4953646;28;45771;-74
2023/06/19 02:08:26;;;;;;;;;13.00;11.00;;;;;21.53;66.33;100760.81;4958016;28;45548;-75
2023/06/19 02:10:51;;;;;;;;;12.67;11.00;;;;;21.70;66.01;100785.88;4958453;28;45357;-75
2023/06/19 02:13:18;;;;;;;;;11.00;9.67;;;;;21.75;65.90;100783.88;4958567;28;45352;-74
2023/06/19 02:15:43;;;;;;;;;13.00;11.33;;;;;21.68;65.76;100764.63;4958416;28;45529;-75
2023/06/19 02:18:09;;;;;;;;;13.00;12.33;;;;;21.82;65.60;100774.69;4958079;28;45541;-76
2023/06/19 02:20:37;;;;;;;;;15.67;11.00;;;;;21.87;65.34;100771.81;4959510;28;45451;-74
2023/06/19 02:23:04;;;;;;;;;13.00;9.67;;;;;21.77;65.39;100760.69;4959488;28;45558;-74
2023/06/19 02:25:35;;;;;;;;;13.67;12.67;;;;;21.80;65.28;100765.88;4955998;28;45814;-74
2023/06/19 02:28:07;;;;;;;;;17.00;14.00;;;;;21.72;65.08;100752.91;4936370;28;47764;-74
2023/06/19 02:30:33;;;;;;;;;12.67;9.33;;;;;21.88;65.32;100782.41;4951100;28;45423;-73
2023/06/19 02:32:59;;;;;;;;;14.00;14.00;;;;;21.72;65.15;100754.69;4957540;28;45353;-74
2023/06/19 02:35:24;;;;;;;;;12.00;10.67;;;;;21.88;64.81;100781.53;4957436;28;45646;-73
2023/06/19 02:37:55;;;;;;;;;11.67;9.67;;;;;21.90;64.93;100780.56;4957311;28;46162;-74
2023/06/19 02:40:24;;;;;;;;;11.67;10.67;;;;;21.87;64.75;100778.00;4955225;28;45729;-74
2023/06/19 02:42:50;;;;;;;;;12.33;11.33;;;;;21.86;64.57;100770.94;4957512;28;45419;-74
2023/06/19 02:45:16;;;;;;;;;11.67;11.33;;;;;21.86;64.81;100776.28;4957343;28;45567;-75
2023/06/19 02:47:42;;;;;;;;;11.33;9.67;;;;;21.88;65.11;100785.09;4957558;28;45726;-75
2023/06/19 02:50:07;;;;;;;;;11.67;10.67;;;;;21.89;65.00;100786.81;4960917;28;45376;-74
2023/06/19 02:52:34;;;;;;;;;12.67;10.67;;;;;21.69;65.04;100765.47;4961019;28;45428;-74
2023/06/19 02:55:00;;;;;;;;;11.33;9.00;;;;;21.86;65.16;100789.63;4961263;28;45601;-73
2023/06/19 02:57:25;;;;;;;;;11.67;10.00;;;;;21.79;65.28;100782.81;4960610;28;46411;-73
2023/06/19 02:59:51;;;;;;;;;11.67;11.67;;;;;21.77;64.95;100780.22;4956398;28;45385;-73
2023/06/19 03:02:17;;;;;;;;;12.00;9.67;;;;;21.82;64.71;100785.34;4957002;28;45576;-73
2023/06/19 03:04:44;;;;;;;;;9.00;8.33;;;;;21.86;64.93;100791.41;4957109;28;45865;-74
2023/06/19 03:07:09;;;;;;;;;11.00;7.33;;;;;21.80;65.32;100790.72;4957007;28;45561;-75
2023/06/19 03:09:35;;;;;;;;;14.00;9.33;;;;;21.73;65.38;100778.59;4956752;28;45432;-74
2023/06/19 03:12:02;;;;;;;;;13.33;11.00;;;;;21.75;65.18;100775.88;4959264;28;45342;-74
2023/06/19 03:14:27;;;;;;;;;11.00;10.67;;;;;21.68;65.10;100775.28;4961000;28;45407;-74
2023/06/19 03:16:53;;;;;;;;;9.67;9.67;;;;;21.80;65.06;100789.88;4955849;28;46208;-74
2023/06/19 03:19:19;;;;;;;;;11.33;9.33;;;;;21.72;65.05;100784.88;4957071;28;45833;-74
2023/06/19 03:21:45;;;;;;;;;11.00;9.33;;;;;21.81;65.00;100789.81;4958291;28;45448;-74
2023/06/19 03:24:11;;;;;;;;;12.67;10.67;;;;;21.85;64.88;100787.00;4956825;28;45552;-74
2023/06/19 03:26:36;;;;;;;;;10.67;10.00;;;;;21.70;64.90;100761.91;4955625;28;46557;-74
2023/06/19 03:29:05;;;;;;;;;10.00;10.00;;;;;21.83;64.69;100780.88;4955644;28;45540;-74
2023/06/19 03:31:31;;;;;;;;;13.67;11.67;;;;;21.60;65.04;100754.28;4955492;28;45698;-74
2023/06/19 03:33:57;;;;;;;;;12.00;11.33;;;;;21.64;65.37;100764.81;4956611;28;45381;-74
2023/06/19 03:36:22;;;;;;;;;10.33;10.33;;;;;21.69;65.59;100789.47;4955859;28;45569;-74
2023/06/19 03:38:51;;;;;;;;;12.00;10.00;;;;;21.63;65.57;100781.75;4954339;28;45468;-74
2023/06/19 03:41:18;;;;;;;;;14.00;11.00;;;;;21.39;65.91;100760.53;4959459;28;45503;-74
2023/06/19 03:43:43;;;;;;;;;12.67;12.67;;;;;21.46;66.22;100794.00;4949509;28;45559;-74
2023/06/19 03:46:09;;;;;;;;;12.33;10.67;;;;;21.36;66.42;100793.50;4955786;28;45447;-74
2023/06/19 03:48:34;;;;;;;;;13.00;12.67;;;;;21.29;66.45;100805.34;4954452;28;45438;-73
2023/06/19 03:51:00;;;;;;;;;12.33;11.33;;;;;21.02;66.71;100772.69;4958302;28;45663;-74
2023/06/19 03:53:26;;;;;;;;;16.00;11.67;;;;;21.23;66.73;100804.72;4937925;28;45529;-73
2023/06/19 03:55:51;;;;;;;;;10.67;10.67;;;;;21.18;67.00;100803.09;4936249;28;46579;-74
2023/06/19 03:58:19;;;;;;;;;8.67;7.67;;;;;21.12;67.21;100800.69;4936398;28;45369;-73
2023/06/19 04:00:44;;;;;;;;;11.00;10.33;;;;;21.08;67.62;100800.88;4940831;28;45383;-75
2023/06/19 04:03:10;;;;;;;;;10.00;10.00;;;;;21.12;67.47;100802.50;4939070;28;45531;-72
2023/06/19 04:05:35;;;;;;;;;17.67;13.67;;;;;21.14;67.45;100798.84;4944266;28;45576;-72
2023/06/19 04:08:05;;;;;;;;;13.67;12.33;;;;;20.86;67.53;100775.13;4958830;28;45481;-73
2023/06/19 04:10:30;;;;;;;;;14.33;13.33;;;;;21.05;67.72;100795.69;4959955;28;45503;-72
2023/06/19 04:12:56;;;;;;;;;14.67;11.33;;;;;21.02;68.06;100801.97;4959316;28;45352;-72
2023/06/19 04:15:22;;;;;;;;;16.00;12.33;;;;;21.01;68.08;100812.72;4958947;28;45539;-73
2023/06/19 04:17:55;;;;;;;;;14.67;12.67;;;;;21.01;68.21;100813.56;4953646;28;45468;-72
2023/06/19 04:20:21;;;;;;;;;12.00;11.67;;;;;21.03;67.78;100822.38;4955747;28;45879;-72
2023/06/19 04:22:47;;;;;;;;;14.33;12.33;;;;;21.00;67.77;100809.19;4953841;28;45369;-73
2023/06/19 04:25:13;;;;;;;;;12.33;10.67;;;;;20.84;67.60;100790.28;4955450;28;46227;-73
2023/06/19 04:27:38;;;;;;;;;12.67;11.33;;;;;20.87;67.84;100802.63;4944563;28;45342;-73
2023/06/19 04:30:06;;;;;;;;;17.67;14.67;;;;;20.99;67.80;100822.56;4942880;28;45508;-73
2023/06/19 04:32:41;;;;;;;;;12.00;11.00;;;;;20.87;67.84;100792.81;4945026;28;45812;-70
2023/06/19 04:35:08;;;;;;;;;13.67;12.67;;;;;21.02;67.63;100823.28;4948711;28;46039;-71
2023/06/19 04:37:37;;;;;;;;;11.67;11.00;;;;;21.05;67.77;100832.97;4946153;28;45515;-71
2023/06/19 04:40:04;;;;;;;;;14.67;12.33;;;;;21.12;67.36;100826.47;4943749;28;45724;-72
2023/06/19 04:42:33;;;;;;;;;10.33;10.33;;;;;21.44;66.73;100846.47;4949756;28;45915;-71
2023/06/19 04:45:00;;;;;;;;;10.00;9.67;;;;;21.53;66.31;100823.94;4951331;28;45513;-72
2023/06/19 04:47:25;;;;;;;;;12.00;10.00;;;;;21.61;65.53;100800.47;4952894;28;45602;-73
2023/06/19 04:49:51;;;;;;;;;12.67;11.67;;;;;21.97;64.99;100842.47;4952730;28;45395;-72
2023/06/19 04:52:18;;;;;;;;;11.33;10.33;;;;;21.97;64.99;100834.47;4949553;28;45375;-73
2023/06/19 04:54:44;;;;;;;;;14.33;12.67;;;;;22.16;64.12;100837.19;4953819;28;45511;-72
2023/06/19 04:57:10;;;;;;;;;15.00;10.67;;;;;22.19;63.65;100837.06;4953461;28;45785;-71
2023/06/19 04:59:36;;;;;;;;;12.67;11.33;;;;;22.27;63.93;100837.59;4955295;28;45563;-71
2023/06/19 05:02:07;;;;;;;;;15.33;12.00;;;;;22.27;63.44;100837.59;4953899;28;45781;-71
2023/06/19 05:04:36;;;;;;;;;11.00;11.00;;;;;22.30;64.01;100848.13;4944233;28;45699;-73
2023/06/19 05:07:03;;;;;;;;;10.00;10.00;;;;;22.08;64.24;100823.34;4949287;28;45451;-71
2023/06/19 05:09:37;;;;;;;;;11.67;9.00;;;;;22.24;63.85;100845.75;4957861;28;45365;-72
2023/06/19 05:12:07;;;;;;;;;11.33;10.67;;;;;22.09;63.35;100817.03;4949421;28;45560;-72
2023/06/19 05:14:37;;;;;;;;;13.00;11.67;;;;;22.32;63.47;100843.59;4951062;28;45559;-74
2023/06/19 05:17:03;;;;;;;;;11.33;11.33;;;;;22.34;62.83;100825.72;4969079;28;45801;-71
2023/06/19 05:19:29;;;;;;;;;10.00;10.00;;;;;22.42;62.66;100817.34;4952755;28;45781;-72
2023/06/19 05:21:55;;;;;;;;;14.33;12.67;;;;;22.52;62.74;100826.69;4948105;28;45551;-73
2023/06/19 05:24:21;;;;;;;;;11.00;10.00;;;;;22.36;63.39;100825.66;4941299;28;45487;-73
2023/06/19 05:26:52;;;;;;;;;15.00;13.00;;;;;22.17;63.56;100829.13;4945755;28;45823;-72
2023/06/19 05:29:21;;;;;;;;;15.67;13.33;;;;;22.03;63.86;100827.06;4944717;28;45583;-71
2023/06/19 05:31:51;;;;;;;;;13.00;12.67;;;;;21.77;64.27;100808.69;4947618;28;45639;-72
2023/06/19 05:34:20;;;;;;;;;17.33;13.67;;;;;21.86;64.49;100842.94;4945765;28;46215;-72
2023/06/19 05:36:46;;;;;;;;;17.67;15.67;;;;;21.81;65.02;100843.13;4953267;28;45502;-72
2023/06/19 05:39:13;;;;;;;;;16.33;13.00;;;;;21.76;64.68;100830.94;4949101;28;45367;-74
2023/06/19 05:41:39;;;;;;;;;17.00;14.67;;;;;21.78;64.95;100847.72;4937783;28;45523;-71
2023/06/19 05:44:05;;;;;;;;;15.67;15.00;;;;;21.44;65.16;100781.69;4939060;28;45618;-73
2023/06/19 05:46:31;;;;;;;;;14.67;13.67;;;;;21.63;65.27;100827.06;4938449;28;45403;-73
2023/06/19 05:48:57;;;;;;;;;16.33;13.33;;;;;21.77;65.13;100830.00;4935405;28;45479;-71
2023/06/19 05:51:22;;;;;;;;;14.67;12.00;;;;;21.69;64.97;100811.69;4966167;28;45474;-71
2023/06/19 05:53:51;;;;;;;;;19.33;16.00;;;;;21.79;65.12;100830.81;4934927;28;45654;-72
2023/06/19 05:56:20;;;;;;;;;15.67;14.67;;;;;21.70;65.32;100809.88;4935097;28;45756;-72
2023/06/19 05:58:45;;;;;;;;;15.33;15.33;;;;;21.74;65.32;100804.34;4935193;28;45756;-73
2023/06/19 06:01:10;;;;;;;;;22.00;17.67;;;;;21.82;64.93;100828.00;4949338;28;45341;-73
2023/06/19 06:03:36;;;;;;;;;23.33;15.00;;;;;21.71;65.04;100815.16;4954118;28;45836;-72
2023/06/19 06:06:05;;;;;;;;;22.67;18.67;;;;;21.73;65.62;100828.41;4951167;28;45501;-73
2023/06/19 06:08:32;;;;;;;;;23.50;16.00;;;;;21.35;65.71;100791.75;4957893;28;45389;-72
2023/06/19 06:10:57;;;;;;;;;18.67;17.00;;;;;21.46;66.10;100806.47;4954330;28;45274;-72
2023/06/19 06:13:23;;;;;;;;;18.33;15.00;;;;;21.55;66.14;100836.25;4952358;28;46943;-73
2023/06/19 06:15:51;;;;;;;;;22.67;20.67;;;;;21.46;66.65;100844.63;4958145;28;45274;-73
2023/06/19 06:18:18;;;;;;;;;21.00;17.00;;;;;21.20;66.93;100808.38;4944962;28;45613;-73
2023/06/19 06:20:43;;;;;;;;;19.33;17.33;;;;;21.05;66.96;100814.34;4936590;28;45345;-73
2023/06/19 06:23:09;;;;;;;;;18.67;17.00;;;;;21.21;67.67;100831.41;4935101;28;46102;-72
2023/06/19 06:25:37;;;;;;;;;25.67;23.67;;;;;21.21;67.19;100841.19;4933227;28;45397;-72
2023/06/19 06:28:06;;;;;;;;;18.00;18.00;;;;;21.26;67.09;100842.75;4934868;28;45400;-72
2023/06/19 06:30:33;;;;;;;;;27.33;24.00;;;;;21.26;66.96;100857.84;4934445;28;45957;-72
2023/06/19 06:32:58;;;;;;;;;26.33;23.00;;;;;21.21;67.07;100835.88;4934428;28;45527;-72
2023/06/19 06:35:24;;;;;;;;;23.00;20.00;;;;;21.42;66.87;100874.97;4935872;28;45731;-72
2023/06/19 06:37:50;;;;;;;;;26.67;20.67;;;;;21.27;67.23;100859.59;4938984;28;45473;-73
2023/06/19 06:40:16;;;;;;;;;26.67;22.33;;;;;21.28;67.60;100875.50;4939373;28;45408;-73
2023/06/19 06:42:41;;;;;;;;;22.00;21.00;;;;;21.20;67.68;100856.31;4938645;28;45460;-74
2023/06/19 06:45:22;;;;;;;;;28.00;25.33;;;;;21.34;67.33;100877.94;4939261;28;45282;-73
2023/06/19 06:47:50;;;;;;;;;23.00;22.00;;;;;21.42;67.60;100887.44;4937129;28;45567;-73
2023/06/19 06:50:17;;;;;;;;;25.00;23.67;;;;;21.17;67.04;100851.13;4933513;28;45813;-73
2023/06/19 06:52:42;;;;;;;;;30.33;29.00;;;;;21.17;67.20;100875.94;4934131;28;45356;-73
2023/06/19 06:55:08;;;;;;;;;27.33;24.00;;;;;21.27;67.61;100891.56;4965050;28;45587;-73
2023/06/19 06:57:37;;;;;;;;;25.33;22.67;;;;;21.30;67.22;100881.66;4938744;28;45509;-75
2023/06/19 07:00:05;;;;;;;;;26.67;22.00;;;;;21.44;67.01;100865.13;4939146;28;45526;-73
2023/06/19 07:02:36;;;;;;;;;27.33;24.67;;;;;21.71;66.07;100899.56;4938579;28;45290;-74
2023/06/19 07:05:06;;;;;;;;;27.33;24.00;;;;;21.48;66.20;100888.06;4939583;28;45892;-74
2023/06/19 07:07:35;;;;;;;;;28.67;26.33;;;;;21.62;66.28;100890.16;4956136;28;45559;-75
2023/06/19 07:10:02;;;;;;;;;35.00;25.00;;;;;21.74;65.75;100888.78;4957146;28;45394;-74
2023/06/19 07:12:27;;;;;;;;;26.00;25.00;;;;;21.83;65.31;100869.75;4943268;28;48022;-74
2023/06/19 07:14:56;;;;;;;;;22.00;18.00;;;;;22.01;65.57;100886.75;4937435;28;45460;-74
2023/06/19 07:17:21;;;;;;;;;30.00;27.33;;;;;22.16;64.60;100886.09;4946418;28;45330;-73
2023/06/19 07:19:50;;;;;;;;;28.67;27.33;;;;;22.17;64.08;100854.94;4956885;28;45366;-74
2023/06/19 07:22:15;;;;;;;;;32.00;29.00;;;;;22.13;63.52;100848.00;4959878;28;46238;-75
2023/06/19 07:24:41;;;;;;;;;29.33;23.00;;;;;22.15;63.53;100841.66;4960207;28;45332;-74
2023/06/19 07:27:07;;;;;;;;;30.00;25.33;;;;;22.58;63.19;100884.25;4939833;28;45408;-74
2023/06/19 07:29:35;;;;;;;;;35.00;26.67;;;;;22.47;63.14;100862.50;4937577;28;45679;-74
2023/06/19 07:32:03;;;;;;;;;29.00;22.00;;;;;22.46;63.25;100855.47;4937675;28;45386;-75
2023/06/19 07:34:29;;;;;;;;;27.67;25.33;;;;;22.09;62.93;100817.94;4937320;28;45470;-73
2023/06/19 07:36:55;;;;;;;;;30.33;27.00;;;;;22.27;62.74;100844.75;4936455;28;45780;-74
2023/06/19 07:39:21;;;;;;;;;24.33;23.00;;;;;22.31;63.38;100849.03;4939791;28;45511;-81
2023/06/19 07:41:52;;;;;;;;;24.67;22.00;;;;;22.49;62.96;100879.31;4954395;28;46634;-81
2023/06/19 07:44:21;;;;;;;;;24.67;23.67;;;;;22.59;62.47;100854.81;4958576;28;45369;-76
2023/06/19 07:46:47;;;;;;;;;23.67;22.00;;;;;22.90;61.88;100865.84;4936153;28;45519;-77
2023/06/19 07:49:12;;;;;;;;;25.33;24.00;;;;;23.06;61.50;100869.56;4966010;28;45324;-75
2023/06/19 07:51:38;;;;;;;;;26.67;20.33;;;;;23.18;60.54;100854.75;4956413;28;45532;-73
2023/06/19 07:54:04;;;;;;;;;33.00;26.67;;;;;23.14;60.22;100821.13;4959129;28;45740;-74
2023/06/19 07:56:30;;;;;;;;;26.67;23.33;;;;;23.03;60.39;100824.31;4955659;28;45471;-74
2023/06/19 07:58:55;;;;;;;;;25.00;23.67;;;;;23.34;59.86;100868.22;4956178;28;45368;-74
2023/06/19 08:01:21;;;;;;;;;34.33;29.00;;;;;23.39;59.82;100875.06;4955649;28;46157;-73
2023/06/19 08:03:47;;;;;;;;;24.67;24.00;;;;;23.20;60.04;100845.72;4946075;28;45523;-74
2023/06/19 08:06:13;;;;;;;;;24.33;22.67;;;;;23.52;59.60;100882.50;4954798;28;45392;-74
2023/06/19 08:08:38;;;;;;;;;33.00;28.33;;;;;23.56;59.97;100876.91;4961137;28;45266;-74
2023/06/19 08:11:05;;;;;;;;;27.00;24.67;;;;;23.69;59.36;100878.03;4958493;28;46086;-74
2023/06/19 08:13:30;;;;;;;;;29.00;25.00;;;;;23.65;58.89;100875.59;4956290;28;45419;-74
2023/06/19 08:15:56;;;;;;;;;25.33;22.67;;;;;23.54;59.13;100878.81;4959593;28;45492;-74
2023/06/19 08:18:21;;;;;;;;;30.00;24.00;;;;;23.54;59.04;100862.78;4959558;28;45472;-73
2023/06/19 08:20:47;;;;;;;;;21.67;17.67;;;;;23.80;58.35;100877.53;4959565;28;46455;-75
2023/06/19 08:23:13;;;;;;;;;21.33;18.67;;;;;23.25;57.47;100776.91;4956879;28;45531;-74
2023/06/19 08:25:38;;;;;;;;;20.67;16.67;;;;;23.88;57.15;100874.47;4946521;28;45489;-72
2023/06/19 08:28:08;;;;;;;;;15.67;14.67;;;;;23.97;56.74;100863.28;4937776;28;45857;-73
2023/06/19 08:30:34;;;;;;;;;23.00;16.33;;;;;24.05;56.03;100846.84;4937782;28;45452;-73
2023/06/19 08:33:00;;;;;;;;;25.00;18.33;;;;;24.22;55.85;100843.25;4948769;28;45533;-74
2023/06/19 08:35:25;;;;;;;;;24.67;19.00;;;;;24.18;56.15;100836.34;4961121;28;45323;-75
2023/06/19 08:37:51;;;;;;;;;21.33;15.67;;;;;24.16;56.01;100855.16;4960702;28;45353;-74
2023/06/19 08:40:19;;;;;;;;;15.33;15.33;;;;;24.31;55.68;100872.22;4958789;28;45763;-74
2023/06/19 08:42:45;;;;;;;;;16.67;14.33;;;;;24.37;55.26;100845.13;4956627;28;45491;-74
2023/06/19 08:45:10;;;;;;;;;22.00;17.00;;;;;24.68;55.00;100860.41;4958672;28;45487;-73
2023/06/19 08:47:36;;;;;;;;;20.00;19.00;;;;;24.51;53.96;100877.41;4948271;28;45454;-74
2023/06/19 08:50:05;;;;;;;;;18.33;16.33;;;;;24.40;54.48;100863.69;4938053;28;45497;-74
2023/06/19 08:52:31;;;;;;;;;21.00;17.33;;;;;24.64;55.01;100868.72;4954914;28;45431;-73
2023/06/19 08:54:56;;;;;;;;;24.00;15.00;;;;;24.55;55.12;100854.84;4955920;28;45720;-73
2023/06/19 08:57:35;;;;;;;;;16.67;15.67;;;;;24.88;54.27;100866.47;4958736;28;45394;-74
2023/06/19 09:00:06;;;;;;;;;22.00;18.33;;;;;24.90;53.31;100872.63;4957439;28;46162;-74
2023/06/19 09:02:42;;;;;;;;;19.00;17.33;;;;;24.72;53.67;100853.06;4958062;28;45435;-73
2023/06/19 09:05:12;;;;;;;;;16.00;12.67;;;;;24.86;54.04;100854.97;4955872;28;45549;-74
2023/06/19 09:07:38;;;;;;;;;26.67;19.67;;;;;24.81;52.86;100847.19;4957403;28;45546;-74
2023/06/19 09:10:21;;;;;;;;;21.33;14.00;;;;;24.48;53.81;100839.22;4956334;28;45345;-74
2023/06/19 09:13:00;;;;;;;;;18.00;16.33;;;;;24.64;54.24;100852.63;4956857;28;45512;-73
2023/06/19 09:15:38;;;;;;;;;12.33;11.67;;;;;24.78;53.50;100847.38;4957781;28;45399;-73
2023/06/19 09:18:13;;;;;;;;;11.33;10.33;;;;;24.99;52.91;100850.69;4949641;28;45484;-74
2023/06/19 09:20:44;;;;;;;;;11.33;11.33;;;;;25.14;51.97;100847.09;4938916;28;45633;-74
2023/06/19 09:23:11;;;;;;;;;12.00;11.00;;;;;24.97;51.67;100847.22;4938695;28;45822;-73
2023/06/19 09:25:47;;;;;;;;;15.67;12.00;;;;;24.91;51.48;100829.66;4939827;28;45395;-74
2023/06/19 09:28:22;;;;;;;;;12.67;11.33;;;;;25.01;51.22;100837.16;4934798;28;45565;-74
2023/06/19 09:30:59;;;;;;;;;14.67;10.33;;;;;24.98;51.73;100819.47;4934979;28;46657;-72
2023/06/19 09:33:27;;;;;;;;;12.33;10.67;;;;;25.29;51.48;100853.44;4948140;28;45603;-72
2023/06/19 09:35:57;;;;;;;;;13.67;11.00;;;;;25.18;51.37;100842.50;4970496;28;45345;-74
2023/06/19 09:38:29;;;;;;;;;13.00;13.00;;;;;25.14;51.18;100830.19;4957155;28;45311;-74
2023/06/19 09:40:58;;;;;;;;;17.00;14.00;;;;;25.19;51.21;100841.53;4975452;28;47156;-75
2023/06/19 09:43:43;;;;;;;;;14.00;11.67;;;;;25.28;51.91;100840.13;4978565;28;45495;-73
2023/06/19 09:46:11;;;;;;;;;11.67;10.00;;;;;25.35;51.66;100834.31;4977456;28;45503;-73
2023/06/19 09:48:45;;;;;;;;;12.33;11.67;;;;;25.26;51.18;100794.66;4962486;28;45559;-73
2023/06/19 09:51:23;;;;;;;;;12.33;11.00;;;;;25.53;50.84;100834.19;4952543;28;47727;-74
2023/06/19 09:53:50;;;;;;;;;13.33;12.67;;;;;25.50;50.56;100818.28;4954400;28;45549;-74
2023/06/19 09:56:21;;;;;;;;;11.33;10.67;;;;;25.37;49.94;100813.66;4957710;28;45432;-73
2023/06/19 09:58:49;;;;;;;;;12.00;12.00;;;;;25.24;49.00;100826.03;4959318;28;45447;-74
2023/06/19 10:01:20;;;;;;;;;15.00;14.00;;;;;25.23;49.51;100820.78;4952844;28;46959;-74
2023/06/19 10:03:45;;;;;;;;;10.00;10.00;;;;;25.06;49.71;100774.34;4935457;28;45779;-73
2023/06/19 10:06:20;;;;;;;;;12.33;10.00;;;;;25.48;49.56;100804.97;4949341;28;45392;-73
2023/06/19 10:08:46;;;;;;;;;11.25;10.50;;;;;25.81;48.95;100820.00;4945869;28;45712;-74
2023/06/19 10:11:12;;;;;;;;;13.67;11.67;;;;;26.04;48.09;100815.94;4960130;28;46923;-72
2023/06/19 10:13:40;;;;;;;;;14.67;12.33;;;;;25.83;48.28;100826.13;4956553;28;45531;-72
2023/06/19 10:16:19;;;;;;;;;12.00;11.67;;;;;25.92;48.73;100824.75;4955681;28;45459;-74
2023/06/19 10:18:49;;;;;;;;;13.67;13.67;;;;;25.91;48.43;100762.19;4956839;28;45506;-73
2023/06/19 10:21:22;;;;;;;;;13.33;12.33;;;;;26.53;47.62;100814.69;4956737;28;46026;-73
2023/06/19 10:23:55;;;;;;;;;12.00;12.00;;;;;26.46;47.74;100803.50;4957044;28;45673;-74
2023/06/19 10:26:30;;;;;;;;;23.00;23.00;;;;;26.60;47.83;100797.25;4961372;28;45414;-74
2023/06/19 10:28:55;;;;;;;;;23.67;19.00;;;;;26.70;46.21;100802.94;4961302;28;46031;-73
2023/06/19 10:31:21;;;;;;;;;17.67;13.67;;;;;26.85;46.19;100805.47;4957675;28;45742;-75
2023/06/19 10:33:47;;;;;;;;;18.67;13.33;;;;;26.49;46.76;100752.25;4956718;28;45420;-73
2023/06/19 10:36:16;;;;;;;;;13.33;13.00;;;;;26.65;46.72;100777.22;4963047;28;45503;-75
2023/06/19 10:38:46;;;;;;;;;14.25;12.50;;;;;26.82;46.61;100769.88;4959524;28;45443;-74
2023/06/19 10:41:22;;;;;;;;;13.75;12.25;;;;;26.99;46.11;100796.50;4959820;28;46669;-75
2023/06/19 10:43:57;;;;;;;;;12.00;10.75;;;;;26.74;46.06;100732.78;4961159;28;45475;-74
2023/06/19 10:46:24;;;;;;;;;15.75;13.50;;;;;27.24;44.82;100789.50;4963343;28;45405;-73
2023/06/19 10:48:59;;;;;;;;;14.25;13.25;;;;;27.08;44.56;100758.25;4965666;28;45591;-74
2023/06/19 10:51:25;;;;;;;;;12.50;11.50;;;;;27.18;44.61;100789.91;4940589;28;46257;-74
2023/06/19 10:53:55;;;;;;;;;11.00;11.00;;;;;27.03;44.91;100783.72;4940046;28;45741;-77
2023/06/19 10:56:21;;;;;;;;;12.75;10.50;;;;;27.06;45.14;100800.50;4939135;28;45409;-76
2023/06/19 10:59:13;;;;;;;;;14.50;11.25;;;;;27.10;45.45;100797.59;4948521;28;45325;-75
2023/06/19 11:01:42;;;;;;;;;16.50;15.25;;;;;27.12;44.77;100791.16;4940407;28;46026;-75
2023/06/19 11:04:10;;;;;;;;;14.75;13.75;;;;;27.25;44.72;100775.13;4941718;28;45905;-73
2023/06/19 11:06:37;;;;;;;;;13.75;12.00;;;;;27.58;44.78;100779.19;4957585;28;45538;-74
2023/06/19 11:09:10;;;;;;;;;12.50;11.50;;;;;27.72;44.13;100779.09;4966299;28;45393;-75
2023/06/19 11:11:43;;;;;;;;;13.50;13.50;;;;;27.62;43.67;100778.84;4967276;28;45233;-73
2023/06/19 11:14:12;;;;;;;;;14.75;13.50;;;;;27.73;43.88;100777.25;4965427;28;45480;-76
2023/06/19 11:16:39;;;;;;;;;17.00;15.00;;;;;27.65;43.79;100767.03;4956179;28;45588;-75